Flight Track Log - Related Links

Times and Time Zones

All times are in EDT time to prevent confusion due to time zone crossing. See the SWA2874 flight status page for this flight to view local times or setup timezone preferences in your user account.

Time Position Orientation Groundspeed Altitude Reporting Facility
EDT Latitude Longitude Course Direction KTS MPH feet Rate Location/Type
Wed 02:41:28 PM 29.6722 -95.2797 33° Northeast 161 185 2,000  Level Houston Center
Wed 02:42:04 PM 29.6503 -95.2572 138° Southeast 228 262 3,200 2,066 Climbing Houston Center
Wed 02:42:29 PM 29.6208 -95.2453 161° South 252 290 4,100 1,452 Climbing Houston Center
Wed 02:43:06 PM 29.5856 -95.2339 164° South 247 284 4,700 871 Climbing Houston Center
Wed 02:43:31 PM 29.5472 -95.2206 163° South 272 313 5,000 774 Climbing Houston Center
Wed 02:44:08 PM 29.5128 -95.2061 160° South 273 314 5,500 2,656 Climbing Houston Center
Wed 02:44:32 PM 29.4750 -95.1908 161° South 278 320 7,700 4,452 Climbing Houston Center
Wed 02:45:10 PM 29.4369 -95.1528 139° Southeast 293 337 10,100 3,180 Climbing Houston Center
Wed 02:46:12 PM 29.4656 -95.0542 72° East 340 391 13,000 2,806 Climbing Houston Center
Wed 02:47:14 PM 29.5353 -94.9728 45° Northeast 363 418 15,900 2,323 Climbing Houston Center
Wed 02:48:16 PM 29.5822 -94.8603 64° Northeast 401 461 17,800 2,274 Climbing Houston Center
Wed 02:49:18 PM 29.6153 -94.7364 73° East 409 471 20,600 2,516 Climbing Houston Center
Wed 02:50:20 PM 29.6567 -94.5806 73° East 422 486 23,000 1,296 Climbing Houston Center
Wed 02:51:23 PM 29.6922 -94.4503 73° East 427 491 23,300 1,248 Climbing Houston Center
Wed 02:52:25 PM 29.7206 -94.3158 76° East 436 502 25,600 1,935 Climbing Houston Center
Wed 02:53:27 PM 29.7397 -94.1647 82° East 454 522 27,300 1,742 Climbing Houston Center
Wed 02:54:29 PM 29.7583 -94.0147 82° East 470 541 29,200 1,742 Climbing Houston Center
Wed 02:55:31 PM 29.7789 -93.8597 81° East 488 562 30,900 1,839 Climbing Houston Center
Wed 02:56:33 PM 29.8028 -93.6706 82° East 500 575 33,000 1,016 Climbing Houston Center
Wed 02:57:35 PM 29.8211 -93.5142 82° East 499 574 33,000  Level Houston Center
Wed 02:58:37 PM 29.8400 -93.3569 82° East 502 578 33,000  Level Houston Center
Wed 02:59:39 PM 29.8594 -93.2008 82° East 500 575 33,000  Level Houston Center
Wed 03:00:41 PM 29.8789 -93.0447 82° East 497 572 33,000  Level Houston Center
Wed 03:01:43 PM 29.9014 -92.8544 82° East 501 577 33,000  Level Houston Center
Wed 03:02:45 PM 29.9208 -92.6953 82° East 504 580 33,000  Level Houston Center
Wed 03:03:47 PM 29.9389 -92.5389 82° East 497 572 33,000 -97 Level Houston Center
Wed 03:04:49 PM 29.9578 -92.3806 82° East 500 575 32,800 -1,355 Descending Houston Center
Wed 03:05:51 PM 29.9764 -92.2203 82° East 505 581 30,200 -2,661 Descending Houston Center
Wed 03:06:53 PM 29.9983 -92.0344 82° East 492 566 27,300 -2,516 Descending Houston Center
Wed 03:07:55 PM 30.0139 -91.8850 83° East 476 548 25,000 -2,160 Descending Houston Center
Wed 03:08:58 PM 30.0300 -91.7408 83° East 461 531 22,800 -2,112 Descending Houston Center
Wed 03:10:00 PM 30.0461 -91.6019 82° East 447 514 20,600 -2,032 Descending Houston Center
Wed 03:11:02 PM 30.0608 -91.4675 83° East 430 495 18,600 -2,158 Descending Houston Center
Wed 03:11:54 PM 30.0756 -91.3333 83° East 412 474 16,500 -2,225 Descending Houston Center
Wed 03:12:31 PM 30.0822 -91.2611 84° East 409 471 15,300 -2,167 Descending Houston Center
Wed 03:13:06 PM 30.0925 -91.1825 81° East 407 468 13,900 -2,100 Descending Houston Center
Wed 03:13:31 PM 30.0936 -91.1261 89° East 401 461 13,200 -1,935 Descending Houston Center
Wed 03:14:08 PM 30.0906 -91.0578 93° East 392 451 11,900 -2,066 Descending Houston Center
Wed 03:14:32 PM 30.0844 -91.0017 97° East 385 443 11,100 -1,742 Descending Houston Center
Wed 03:15:10 PM 30.0808 -90.9361 94° East 383 441 10,100 -885 Descending Houston Center
Wed 03:15:33 PM 30.0772 -90.8864 95° East 362 417 10,200 -581 Climbing Houston Center
Wed 03:16:12 PM 30.0761 -90.8289 91° East 342 394 9,500 -1,100 Descending Houston Center
Wed 03:16:33 PM 30.0725 -90.7833 95° East 310 357 9,100 -1,258 Descending Houston Center
Wed 03:17:14 PM 30.0697 -90.7292 93° East 318 366 8,200 -1,377 Descending Houston Center
Wed 03:17:34 PM 30.0658 -90.6828 96° East 310 357 7,700 -1,258 Descending Houston Center
Wed 03:18:16 PM 30.0639 -90.6311 92° East 313 360 6,900 -1,279 Descending Houston Center
Wed 03:18:35 PM 30.0589 -90.5869 97° East 306 352 6,400 -1,645 Descending Houston Center
Wed 03:19:18 PM 30.0547 -90.5164 94° East 306 352 5,200 -1,600 Descending Houston Center
Wed 03:19:35 PM 30.0458 -90.4914 112° Southeast 276 318 4,800 -1,839 Descending Houston Center
Wed 03:20:20 PM 30.0350 -90.4400 104° East 272 313 3,300 -1,672 Descending Houston Center
Wed 03:20:36 PM 30.0289 -90.4175 107° East 224 258 3,100 -1,258 Descending Houston Center
Wed 03:21:22 PM 30.0208 -90.3764 103° East 235 270 2,000 -1,475 Descending Houston Center
Wed 03:21:37 PM 30.0147 -90.3603 114° Southeast 196 226 1,600 -1,258 Descending Houston Center
Wed 03:22:24 PM 30.0078 -90.3250 103° East 199 229 700 -661 Descending Houston Center
Wed 03:23:26 PM 29.9931 -90.2678 107° East 186 214 400 -290 Descending Houston Center
Wed 03:25:00 PM 29.9934 -90.2580 101° East  Level Estimated
Wed 03:32:00 PM 29.9934 -90.2580 101° East  Level Estimated
Wed 03:33:00 PM 29.9934 -90.2580 101° East  Level Estimated

Login

Don't have an account? Register now (free) for customized features, flight alerts, and more!